This is the latest recevied weather packets stored in our database for station/object N9VPV. If no packets are shown the sender has not sent any weather packets the latest 10 day(s).
| Time | Temp. | Humidity | Pressure | Rain* | Wind** | Luminosity | Snow |
|---|---|---|---|---|---|---|---|
| 1777959596 | 11.67° C | 63% | 1004.8 hPa | 0 mm | - | 0 W/m² | - |
| 1777958692 | 11.67° C | 63% | 1003.6 hPa | 0 mm | - | 0 W/m² | - |
| 1777957791 | 12.22° C | 65% | 1003.4 hPa | 0 mm | - | 0 W/m² | - |
| 1777956892 | 12.78° C | 64% | 1003.4 hPa | 0 mm | - | 0 W/m² | - |
| 1777955989 | 12.78° C | 65% | 1002.7 hPa | 0 mm | - | 0 W/m² | - |
| 1777955088 | 12.78° C | 66% | 1002.4 hPa | 0 mm | - | 0 W/m² | - |
| 1777954187 | 12.78° C | 70% | 1002.6 hPa | 0 mm | - | 0 W/m² | - |
| 1777953283 | 12.78° C | 77% | 1002.4 hPa | 0 mm | - | 0 W/m² | - |
| 1777952380 | 12.22° C | 83% | 1002.3 hPa | 0 mm | - | 0 W/m² | - |
| 1777951464 | 12.78° C | 87% | 1002.3 hPa | 0 mm | - | 0 W/m² | - |
| 1777950565 | 12.78° C | 89% | 1002.2 hPa | 0 mm | - | 0 W/m² | - |
| 1777949666 | 13.33° C | 90% | 1001.7 hPa | 0 mm | - | 0 W/m² | - |
| 1777948762 | 13.89° C | 91% | 1001.9 hPa | 0 mm | - | 0 W/m² | - |
| 1777947857 | 13.89° C | 90% | 1001.7 hPa | 0.51 mm | - | 0 W/m² | - |
| 1777946948 | 14.44° C | 90% | 1001.2 hPa | 2.29 mm | - | 0 W/m² | - |
| 1777946048 | 14.44° C | 89% | 1001.1 hPa | 3.3 mm | - | 0 W/m² | - |
| 1777945145 | 14.44° C | 90% | 1000.8 hPa | 6.1 mm | - | 0 W/m² | - |
| 1777944245 | 13.89° C | 90% | 1000.4 hPa | 14.99 mm | - | 0 W/m² | - |
| 1777943341 | 13.33° C | 89% | 1001.3 hPa | 13.21 mm | - | 0 W/m² | - |
| 1777942440 | 13.33° C | 87% | 1000.8 hPa | 12.19 mm | - | 0 W/m² | - |
| 1777941542 | 13.33° C | 81% | 1000.4 hPa | 10.41 mm | - | 0 W/m² | - |
| 1777940640 | 16.11° C | 85% | 1001 hPa | 1.02 mm | - | 0 W/m² | - |
| 1777939742 | 16.11° C | 82% | 999.1 hPa | 1.02 mm | - | 0 W/m² | - |
| 1777938817 | 17.22° C | 75% | 998.8 hPa | 1.02 mm | - | 0 W/m² | - |
| 1777937908 | 19.44° C | 61% | 999.6 hPa | 0 mm | - | 0 W/m² | - |
* Rain latest hour (hover to see other rain measurements)
** Current wind speed in m/s (hover to see current wind gust speed)